sensor_id;sensor_type;location;lat;lon;timestamp;pressure;altitude;pressure_sealevel;temperature;humidity
57114;BME280;42994;51.606;9.988;2023-06-04T00:01:27;99559.19;;;9.07;100.00
57114;BME280;42994;51.606;9.988;2023-06-04T00:03:54;99557.19;;;9.09;100.00
57114;BME280;42994;51.606;9.988;2023-06-04T00:06:21;99565.03;;;9.10;100.00
57114;BME280;42994;51.606;9.988;2023-06-04T00:08:47;99568.22;;;8.97;100.00
57114;BME280;42994;51.606;9.988;2023-06-04T00:11:15;99566.06;;;9.01;100.00
57114;BME280;42994;51.606;9.988;2023-06-04T00:13:42;99566.91;;;8.93;100.00
57114;BME280;42994;51.606;9.988;2023-06-04T00:16:08;99564.22;;;8.93;100.00
57114;BME280;42994;51.606;9.988;2023-06-04T00:18:35;99560.53;;;9.02;100.00
57114;BME280;42994;51.606;9.988;2023-06-04T00:21:02;99559.72;;;9.02;100.00
57114;BME280;42994;51.606;9.988;2023-06-04T00:23:28;99560.72;;;9.01;100.00
57114;BME280;42994;51.606;9.988;2023-06-04T00:25:55;99564.84;;;8.46;100.00
57114;BME280;42994;51.606;9.988;2023-06-04T00:28:23;99559.66;;;8.44;100.00
57114;BME280;42994;51.606;9.988;2023-06-04T00:30:50;99558.78;;;8.36;100.00
57114;BME280;42994;51.606;9.988;2023-06-04T00:33:17;99551.19;;;8.49;100.00
57114;BME280;42994;51.606;9.988;2023-06-04T00:35:43;99553.78;;;8.41;100.00
57114;BME280;42994;51.606;9.988;2023-06-04T00:38:10;99557.25;;;8.25;100.00
57114;BME280;42994;51.606;9.988;2023-06-04T00:40:37;99554.84;;;8.56;100.00
57114;BME280;42994;51.606;9.988;2023-06-04T00:43:03;99559.91;;;8.25;100.00
57114;BME280;42994;51.606;9.988;2023-06-04T00:45:32;99554.66;;;8.58;100.00
57114;BME280;42994;51.606;9.988;2023-06-04T00:47:59;99560.97;;;8.40;100.00
57114;BME280;42994;51.606;9.988;2023-06-04T00:50:26;99546.88;;;8.05;100.00
57114;BME280;42994;51.606;9.988;2023-06-04T00:52:54;99547.94;;;8.29;100.00
57114;BME280;42994;51.606;9.988;2023-06-04T00:55:21;99545.69;;;8.08;100.00
57114;BME280;42994;51.606;9.988;2023-06-04T00:57:48;99545.22;;;8.21;100.00
57114;BME280;42994;51.606;9.988;2023-06-04T01:00:15;99544.00;;;7.99;100.00
57114;BME280;42994;51.606;9.988;2023-06-04T01:02:44;99542.84;;;8.01;100.00
57114;BME280;42994;51.606;9.988;2023-06-04T01:05:19;99551.09;;;8.24;100.00
57114;BME280;42994;51.606;9.988;2023-06-04T01:07:48;99551.25;;;8.23;100.00
57114;BME280;42994;51.606;9.988;2023-06-04T01:10:14;99545.84;;;8.06;100.00
57114;BME280;42994;51.606;9.988;2023-06-04T01:12:42;99550.06;;;8.09;100.00
57114;BME280;42994;51.606;9.988;2023-06-04T01:15:10;99550.38;;;8.06;100.00
57114;BME280;42994;51.606;9.988;2023-06-04T01:17:39;99546.34;;;8.02;100.00
57114;BME280;42994;51.606;9.988;2023-06-04T01:20:27;99554.16;;;7.53;100.00
57114;BME280;42994;51.606;9.988;2023-06-04T01:23:14;99546.84;;;7.63;100.00
57114;BME280;42994;51.606;9.988;2023-06-04T01:25:42;99541.88;;;7.68;100.00
57114;BME280;42994;51.606;9.988;2023-06-04T01:28:12;99549.28;;;7.82;100.00
57114;BME280;42994;51.606;9.988;2023-06-04T01:30:44;99546.75;;;7.46;100.00
57114;BME280;42994;51.606;9.988;2023-06-04T01:33:15;99551.78;;;7.49;100.00
57114;BME280;42994;51.606;9.988;2023-06-04T01:35:43;99548.09;;;7.42;100.00
57114;BME280;42994;51.606;9.988;2023-06-04T01:38:10;99548.97;;;7.51;100.00
57114;BME280;42994;51.606;9.988;2023-06-04T01:40:37;99545.78;;;7.47;100.00
57114;BME280;42994;51.606;9.988;2023-06-04T01:43:04;99556.81;;;7.26;100.00
57114;BME280;42994;51.606;9.988;2023-06-04T01:45:30;99549.63;;;7.45;100.00
57114;BME280;42994;51.606;9.988;2023-06-04T01:47:57;99549.94;;;7.50;100.00
57114;BME280;42994;51.606;9.988;2023-06-04T01:50:24;99546.00;;;7.54;100.00
57114;BME280;42994;51.606;9.988;2023-06-04T01:52:53;99550.91;;;7.67;100.00
57114;BME280;42994;51.606;9.988;2023-06-04T01:55:20;99552.53;;;7.60;100.00
57114;BME280;42994;51.606;9.988;2023-06-04T01:57:47;99556.50;;;7.56;100.00
57114;BME280;42994;51.606;9.988;2023-06-04T02:00:14;99547.19;;;7.60;100.00
57114;BME280;42994;51.606;9.988;2023-06-04T02:02:43;99552.16;;;7.02;100.00
57114;BME280;42994;51.606;9.988;2023-06-04T02:05:11;99555.69;;;7.03;100.00
57114;BME280;42994;51.606;9.988;2023-06-04T02:07:39;99554.78;;;6.94;100.00
57114;BME280;42994;51.606;9.988;2023-06-04T02:10:08;99558.00;;;6.80;100.00
57114;BME280;42994;51.606;9.988;2023-06-04T02:12:37;99552.78;;;6.96;100.00
57114;BME280;42994;51.606;9.988;2023-06-04T02:15:05;99553.38;;;7.08;100.00
57114;BME280;42994;51.606;9.988;2023-06-04T02:17:32;99554.94;;;7.19;100.00
57114;BME280;42994;51.606;9.988;2023-06-04T02:20:03;99558.78;;;6.98;100.00
57114;BME280;42994;51.606;9.988;2023-06-04T02:22:31;99560.56;;;6.89;100.00
57114;BME280;42994;51.606;9.988;2023-06-04T02:24:59;99554.50;;;6.79;100.00
57114;BME280;42994;51.606;9.988;2023-06-04T02:27:27;99557.03;;;6.63;100.00
57114;BME280;42994;51.606;9.988;2023-06-04T02:29:54;99553.50;;;6.80;100.00
57114;BME280;42994;51.606;9.988;2023-06-04T02:32:20;99559.72;;;6.89;100.00
57114;BME280;42994;51.606;9.988;2023-06-04T02:34:47;99550.56;;;6.91;100.00
57114;BME280;42994;51.606;9.988;2023-06-04T02:37:14;99551.13;;;6.77;100.00
57114;BME280;42994;51.606;9.988;2023-06-04T02:39:41;99551.91;;;6.69;100.00
57114;BME280;42994;51.606;9.988;2023-06-04T02:42:08;99552.66;;;6.62;100.00
57114;BME280;42994;51.606;9.988;2023-06-04T02:44:37;99554.34;;;6.63;100.00
57114;BME280;42994;51.606;9.988;2023-06-04T02:47:04;99555.72;;;6.67;100.00
57114;BME280;42994;51.606;9.988;2023-06-04T02:49:31;99559.22;;;6.49;100.00
57114;BME280;42994;51.606;9.988;2023-06-04T02:51:57;99562.19;;;6.46;100.00
57114;BME280;42994;51.606;9.988;2023-06-04T02:54:24;99559.22;;;6.49;100.00
57114;BME280;42994;51.606;9.988;2023-06-04T02:56:51;99563.09;;;6.55;100.00
57114;BME280;42994;51.606;9.988;2023-06-04T02:59:18;99562.41;;;6.53;100.00
57114;BME280;42994;51.606;9.988;2023-06-04T03:01:46;99561.53;;;6.16;100.00
57114;BME280;42994;51.606;9.988;2023-06-04T03:04:13;99561.66;;;5.87;100.00
57114;BME280;42994;51.606;9.988;2023-06-04T03:06:41;99555.38;;;6.16;100.00
57114;BME280;42994;51.606;9.988;2023-06-04T03:09:10;99557.69;;;6.29;100.00
57114;BME280;42994;51.606;9.988;2023-06-04T03:11:37;99560.81;;;6.24;100.00
57114;BME280;42994;51.606;9.988;2023-06-04T03:14:04;99563.38;;;6.16;100.00
57114;BME280;42994;51.606;9.988;2023-06-04T03:16:31;99554.59;;;6.33;100.00
57114;BME280;42994;51.606;9.988;2023-06-04T03:18:59;99559.59;;;6.37;100.00
57114;BME280;42994;51.606;9.988;2023-06-04T03:21:26;99557.31;;;6.42;100.00
57114;BME280;42994;51.606;9.988;2023-06-04T03:23:54;99562.88;;;6.48;100.00
57114;BME280;42994;51.606;9.988;2023-06-04T03:26:21;99560.66;;;6.44;100.00
57114;BME280;42994;51.606;9.988;2023-06-04T03:28:47;99563.94;;;6.38;100.00
57114;BME280;42994;51.606;9.988;2023-06-04T03:31:17;99562.81;;;6.12;100.00
57114;BME280;42994;51.606;9.988;2023-06-04T03:33:44;99567.00;;;5.97;100.00
57114;BME280;42994;51.606;9.988;2023-06-04T03:36:13;99571.78;;;6.11;100.00
57114;BME280;42994;51.606;9.988;2023-06-04T03:38:42;99563.38;;;6.16;100.00
57114;BME280;42994;51.606;9.988;2023-06-04T03:41:11;99571.75;;;6.21;100.00
57114;BME280;42994;51.606;9.988;2023-06-04T03:43:40;99569.84;;;6.13;100.00
57114;BME280;42994;51.606;9.988;2023-06-04T03:46:08;99576.75;;;6.06;100.00
57114;BME280;42994;51.606;9.988;2023-06-04T03:48:36;99573.94;;;6.08;100.00
57114;BME280;42994;51.606;9.988;2023-06-04T03:51:03;99572.53;;;6.04;100.00
57114;BME280;42994;51.606;9.988;2023-06-04T03:53:31;99568.63;;;6.08;100.00
57114;BME280;42994;51.606;9.988;2023-06-04T03:55:58;99572.66;;;6.12;100.00
57114;BME280;42994;51.606;9.988;2023-06-04T03:58:25;99565.63;;;6.11;100.00
57114;BME280;42994;51.606;9.988;2023-06-04T04:00:54;99569.13;;;6.11;100.00
57114;BME280;42994;51.606;9.988;2023-06-04T04:03:22;99569.84;;;6.13;100.00
57114;BME280;42994;51.606;9.988;2023-06-04T04:05:50;99563.72;;;6.03;100.00
57114;BME280;42994;51.606;9.988;2023-06-04T04:08:18;99572.66;;;6.12;100.00
57114;BME280;42994;51.606;9.988;2023-06-04T04:10:48;99577.22;;;6.20;100.00
57114;BME280;42994;51.606;9.988;2023-06-04T04:13:15;99562.22;;;6.19;100.00
57114;BME280;42994;51.606;9.988;2023-06-04T04:15:42;99572.44;;;6.23;100.00
57114;BME280;42994;51.606;9.988;2023-06-04T04:18:09;99573.22;;;6.33;100.00
57114;BME280;42994;51.606;9.988;2023-06-04T04:20:37;99569.94;;;6.40;100.00
57114;BME280;42994;51.606;9.988;2023-06-04T04:23:07;99573.69;;;6.47;100.00
57114;BME280;42994;51.606;9.988;2023-06-04T04:25:35;99570.88;;;6.48;100.00
57114;BME280;42994;51.606;9.988;2023-06-04T04:28:05;99572.53;;;6.49;100.00
57114;BME280;42994;51.606;9.988;2023-06-04T04:30:33;99570.00;;;6.48;100.00
57114;BME280;42994;51.606;9.988;2023-06-04T04:33:01;99571.00;;;6.29;100.00
57114;BME280;42994;51.606;9.988;2023-06-04T04:35:35;99564.75;;;6.38;100.00
57114;BME280;42994;51.606;9.988;2023-06-04T04:38:03;99575.03;;;6.51;100.00
57114;BME280;42994;51.606;9.988;2023-06-04T04:40:34;99574.13;;;6.60;100.00
57114;BME280;42994;51.606;9.988;2023-06-04T04:43:05;99572.53;;;6.67;100.00
57114;BME280;42994;51.606;9.988;2023-06-04T04:45:32;99581.28;;;6.78;100.00
57114;BME280;42994;51.606;9.988;2023-06-04T04:48:00;99575.72;;;6.89;100.00
57114;BME280;42994;51.606;9.988;2023-06-04T04:50:27;99565.22;;;7.13;100.00
57114;BME280;42994;51.606;9.988;2023-06-04T04:52:54;99579.84;;;7.27;100.00
57114;BME280;42994;51.606;9.988;2023-06-04T04:55:24;99574.66;;;7.52;100.00
57114;BME280;42994;51.606;9.988;2023-06-04T04:57:52;99578.84;;;7.55;100.00
57114;BME280;42994;51.606;9.988;2023-06-04T05:00:21;99582.31;;;7.47;100.00
57114;BME280;42994;51.606;9.988;2023-06-04T05:02:51;99575.53;;;7.61;100.00
57114;BME280;42994;51.606;9.988;2023-06-04T05:05:18;99581.91;;;7.68;100.00
57114;BME280;42994;51.606;9.988;2023-06-04T05:07:46;99580.34;;;7.92;100.00
57114;BME280;42994;51.606;9.988;2023-06-04T05:10:12;99584.31;;;8.22;100.00
57114;BME280;42994;51.606;9.988;2023-06-04T05:12:50;99588.22;;;8.52;100.00
57114;BME280;42994;51.606;9.988;2023-06-04T05:15:17;99578.41;;;9.10;100.00
57114;BME280;42994;51.606;9.988;2023-06-04T05:17:46;99586.78;;;9.15;100.00
57114;BME280;42994;51.606;9.988;2023-06-04T05:20:14;99593.28;;;9.46;100.00
57114;BME280;42994;51.606;9.988;2023-06-04T05:22:43;99594.38;;;9.68;100.00
57114;BME280;42994;51.606;9.988;2023-06-04T05:25:11;99592.16;;;9.88;100.00
57114;BME280;42994;51.606;9.988;2023-06-04T05:27:39;99581.97;;;10.14;100.00
57114;BME280;42994;51.606;9.988;2023-06-04T05:30:09;99598.16;;;10.37;100.00
57114;BME280;42994;51.606;9.988;2023-06-04T05:32:35;99598.84;;;10.63;100.00
57114;BME280;42994;51.606;9.988;2023-06-04T05:35:09;99598.97;;;10.92;100.00
57114;BME280;42994;51.606;9.988;2023-06-04T05:37:38;99591.91;;;10.91;100.00
57114;BME280;42994;51.606;9.988;2023-06-04T05:40:07;99594.59;;;11.14;100.00
57114;BME280;42994;51.606;9.988;2023-06-04T05:42:36;99593.97;;;11.27;100.00
57114;BME280;42994;51.606;9.988;2023-06-04T05:45:03;99595.19;;;11.40;100.00
57114;BME280;42994;51.606;9.988;2023-06-04T05:47:30;99597.53;;;10.82;100.00
57114;BME280;42994;51.606;9.988;2023-06-04T05:49:57;99595.41;;;10.46;100.00
57114;BME280;42994;51.606;9.988;2023-06-04T05:52:26;99591.38;;;10.96;100.00
57114;BME280;42994;51.606;9.988;2023-06-04T05:54:52;99599.44;;;10.73;100.00
57114;BME280;42994;51.606;9.988;2023-06-04T05:57:20;99600.13;;;11.81;100.00
57114;BME280;42994;51.606;9.988;2023-06-04T05:59:47;99603.22;;;12.59;100.00
57114;BME280;42994;51.606;9.988;2023-06-04T06:02:16;99597.41;;;12.98;100.00
57114;BME280;42994;51.606;9.988;2023-06-04T06:04:43;99590.22;;;13.27;100.00
57114;BME280;42994;51.606;9.988;2023-06-04T06:07:10;99593.41;;;13.37;100.00
57114;BME280;42994;51.606;9.988;2023-06-04T06:09:38;99600.22;;;13.33;100.00
57114;BME280;42994;51.606;9.988;2023-06-04T06:12:04;99603.34;;;13.65;98.96
57114;BME280;42994;51.606;9.988;2023-06-04T06:14:33;99608.50;;;13.95;97.08
57114;BME280;42994;51.606;9.988;2023-06-04T06:17:01;99600.97;;;13.83;97.80
57114;BME280;42994;51.606;9.988;2023-06-04T06:19:30;99603.31;;;14.00;96.37
57114;BME280;42994;51.606;9.988;2023-06-04T06:21:57;99601.97;;;14.59;90.98
57114;BME280;42994;51.606;9.988;2023-06-04T06:24:25;99604.94;;;14.36;91.53
57114;BME280;42994;51.606;9.988;2023-06-04T06:26:54;99616.19;;;14.46;93.90
57114;BME280;42994;51.606;9.988;2023-06-04T06:29:20;99617.38;;;14.92;90.69
57114;BME280;42994;51.606;9.988;2023-06-04T06:31:49;99618.25;;;14.37;92.01
57114;BME280;42994;51.606;9.988;2023-06-04T06:34:15;99617.06;;;14.53;92.04
57114;BME280;42994;51.606;9.988;2023-06-04T06:36:42;99614.50;;;15.40;88.69
57114;BME280;42994;51.606;9.988;2023-06-04T06:39:09;99613.81;;;14.78;90.76
57114;BME280;42994;51.606;9.988;2023-06-04T06:41:36;99603.06;;;15.85;85.36
57114;BME280;42994;51.606;9.988;2023-06-04T06:44:07;99605.31;;;14.68;80.94
57114;BME280;42994;51.606;9.988;2023-06-04T06:46:33;99616.38;;;15.26;86.00
57114;BME280;42994;51.606;9.988;2023-06-04T06:49:00;99600.81;;;15.28;78.93
57114;BME280;42994;51.606;9.988;2023-06-04T06:51:27;99602.66;;;15.14;79.13
57114;BME280;42994;51.606;9.988;2023-06-04T06:53:53;99607.34;;;16.12;76.47
57114;BME280;42994;51.606;9.988;2023-06-04T06:56:20;99607.91;;;16.66;74.03
57114;BME280;42994;51.606;9.988;2023-06-04T06:58:47;99605.63;;;17.08;71.40
57114;BME280;42994;51.606;9.988;2023-06-04T07:01:15;99610.88;;;17.28;70.92
57114;BME280;42994;51.606;9.988;2023-06-04T07:03:42;99608.00;;;16.53;69.17
57114;BME280;42994;51.606;9.988;2023-06-04T07:06:08;99609.41;;;17.33;70.62
57114;BME280;42994;51.606;9.988;2023-06-04T07:08:35;99604.63;;;17.53;67.98
57114;BME280;42994;51.606;9.988;2023-06-04T07:11:03;99609.66;;;17.49;67.55
57114;BME280;42994;51.606;9.988;2023-06-04T07:13:30;99617.56;;;17.76;67.80
57114;BME280;42994;51.606;9.988;2023-06-04T07:15:57;99614.50;;;17.91;68.08
57114;BME280;42994;51.606;9.988;2023-06-04T07:18:26;99622.72;;;17.34;71.14
57114;BME280;42994;51.606;9.988;2023-06-04T07:20:52;99608.38;;;17.96;67.19
57114;BME280;42994;51.606;9.988;2023-06-04T07:23:19;99601.31;;;18.32;62.70
57114;BME280;42994;51.606;9.988;2023-06-04T07:25:46;99610.56;;;17.43;63.91
57114;BME280;42994;51.606;9.988;2023-06-04T07:28:12;99612.19;;;17.95;67.95
57114;BME280;42994;51.606;9.988;2023-06-04T07:30:39;99608.88;;;17.93;64.65
57114;BME280;42994;51.606;9.988;2023-06-04T07:33:06;99605.56;;;17.84;64.29
57114;BME280;42994;51.606;9.988;2023-06-04T07:35:37;99607.13;;;18.66;62.47
57114;BME280;42994;51.606;9.988;2023-06-04T07:38:03;99624.59;;;17.08;65.46
57114;BME280;42994;51.606;9.988;2023-06-04T07:40:30;99600.25;;;18.14;63.00
57114;BME280;42994;51.606;9.988;2023-06-04T07:42:57;99596.19;;;19.14;58.50
57114;BME280;42994;51.606;9.988;2023-06-04T07:45:23;99584.03;;;18.75;53.26
57114;BME280;42994;51.606;9.988;2023-06-04T07:47:50;99594.34;;;19.62;54.59
57114;BME280;42994;51.606;9.988;2023-06-04T07:50:16;99593.22;;;18.74;54.74
57114;BME280;42994;51.606;9.988;2023-06-04T07:52:44;99586.03;;;19.21;51.82
57114;BME280;42994;51.606;9.988;2023-06-04T07:55:11;99581.50;;;18.92;48.45
57114;BME280;42994;51.606;9.988;2023-06-04T07:57:38;99583.72;;;18.53;48.97
57114;BME280;42994;51.606;9.988;2023-06-04T08:00:06;99570.94;;;19.73;48.72
57114;BME280;42994;51.606;9.988;2023-06-04T08:02:39;99565.56;;;20.42;45.47
57114;BME280;42994;51.606;9.988;2023-06-04T08:05:06;99558.09;;;20.21;44.57
57114;BME280;42994;51.606;9.988;2023-06-04T08:07:33;99570.34;;;19.71;45.14
57114;BME280;42994;51.606;9.988;2023-06-04T08:10:01;99577.44;;;20.36;46.98
57114;BME280;42994;51.606;9.988;2023-06-04T08:12:27;99570.34;;;20.76;45.65
57114;BME280;42994;51.606;9.988;2023-06-04T08:14:54;99566.75;;;20.17;42.84
57114;BME280;42994;51.606;9.988;2023-06-04T08:17:22;99570.41;;;20.52;43.83
57114;BME280;42994;51.606;9.988;2023-06-04T08:19:49;99573.91;;;20.64;44.31
57114;BME280;42994;51.606;9.988;2023-06-04T08:22:15;99591.09;;;20.24;46.46
57114;BME280;42994;51.606;9.988;2023-06-04T08:24:42;99588.56;;;19.70;47.31
57114;BME280;42994;51.606;9.988;2023-06-04T08:27:10;99573.50;;;21.01;42.86
57114;BME280;42994;51.606;9.988;2023-06-04T08:29:37;99580.00;;;20.83;43.10
57114;BME280;42994;51.606;9.988;2023-06-04T08:32:05;99568.50;;;20.52;41.45
57114;BME280;42994;51.606;9.988;2023-06-04T08:34:33;99571.09;;;20.59;41.26
57114;BME280;42994;51.606;9.988;2023-06-04T08:36:59;99554.66;;;21.17;39.07
57114;BME280;42994;51.606;9.988;2023-06-04T08:39:26;99559.53;;;21.31;38.90
57114;BME280;42994;51.606;9.988;2023-06-04T08:41:57;99566.84;;;20.80;40.25
57114;BME280;42994;51.606;9.988;2023-06-04T08:44:27;99570.13;;;20.65;40.03
57114;BME280;42994;51.606;9.988;2023-06-04T08:47:02;99557.94;;;19.87;38.08
57114;BME280;42994;51.606;9.988;2023-06-04T08:49:32;99555.06;;;21.42;38.64
57114;BME280;42994;51.606;9.988;2023-06-04T08:51:59;99562.59;;;21.35;38.24
57114;BME280;42994;51.606;9.988;2023-06-04T08:54:26;99574.50;;;21.29;39.96
57114;BME280;42994;51.606;9.988;2023-06-04T08:56:55;99558.72;;;21.14;38.35
57114;BME280;42994;51.606;9.988;2023-06-04T08:59:22;99568.00;;;20.67;39.27
57114;BME280;42994;51.606;9.988;2023-06-04T09:01:53;99557.13;;;20.84;38.15
57114;BME280;42994;51.606;9.988;2023-06-04T09:04:20;99549.31;;;21.22;36.45
57114;BME280;42994;51.606;9.988;2023-06-04T09:06:48;99565.59;;;21.50;38.09
57114;BME280;42994;51.606;9.988;2023-06-04T09:09:16;99562.91;;;21.39;38.40
57114;BME280;42994;51.606;9.988;2023-06-04T09:11:51;99561.03;;;21.05;36.95
57114;BME280;42994;51.606;9.988;2023-06-04T09:14:18;99567.72;;;21.15;38.88
57114;BME280;42994;51.606;9.988;2023-06-04T09:16:46;99568.38;;;21.56;38.64
57114;BME280;42994;51.606;9.988;2023-06-04T09:19:15;99581.97;;;20.30;40.28
57114;BME280;42994;51.606;9.988;2023-06-04T09:21:47;99574.94;;;21.55;39.16
57114;BME280;42994;51.606;9.988;2023-06-04T09:24:14;99567.34;;;20.77;38.91
57114;BME280;42994;51.606;9.988;2023-06-04T09:26:40;99577.06;;;21.02;39.15
57114;BME280;42994;51.606;9.988;2023-06-04T09:29:07;99581.94;;;21.00;38.66
57114;BME280;42994;51.606;9.988;2023-06-04T09:31:34;99593.16;;;21.37;40.92
57114;BME280;42994;51.606;9.988;2023-06-04T09:34:03;99575.94;;;21.87;38.26
57114;BME280;42994;51.606;9.988;2023-06-04T09:36:32;99570.47;;;20.69;37.64
57114;BME280;42994;51.606;9.988;2023-06-04T09:39:00;99572.19;;;21.94;38.35
57114;BME280;42994;51.606;9.988;2023-06-04T09:41:28;99563.50;;;22.19;38.61
57114;BME280;42994;51.606;9.988;2023-06-04T09:43:59;99567.19;;;21.85;38.04
57114;BME280;42994;51.606;9.988;2023-06-04T09:46:28;99562.44;;;21.42;36.23
57114;BME280;42994;51.606;9.988;2023-06-04T09:48:59;99552.91;;;21.44;36.56
57114;BME280;42994;51.606;9.988;2023-06-04T09:51:26;99577.56;;;20.01;39.45
57114;BME280;42994;51.606;9.988;2023-06-04T09:53:55;99562.78;;;21.45;38.35
57114;BME280;42994;51.606;9.988;2023-06-04T09:56:22;99569.91;;;21.85;38.92
57114;BME280;42994;51.606;9.988;2023-06-04T09:58:49;99558.03;;;21.97;38.32
57114;BME280;42994;51.606;9.988;2023-06-04T10:01:16;99570.19;;;21.67;38.32
57114;BME280;42994;51.606;9.988;2023-06-04T10:03:46;99551.19;;;21.94;38.39
57114;BME280;42994;51.606;9.988;2023-06-04T10:06:15;99555.00;;;22.37;38.13
57114;BME280;42994;51.606;9.988;2023-06-04T10:08:42;99546.25;;;21.52;36.15
57114;BME280;42994;51.606;9.988;2023-06-04T10:11:11;99575.84;;;20.81;39.53
57114;BME280;42994;51.606;9.988;2023-06-04T10:13:45;99583.03;;;20.58;39.75
57114;BME280;42994;51.606;9.988;2023-06-04T10:16:13;99581.44;;;20.45;40.40
57114;BME280;42994;51.606;9.988;2023-06-04T10:18:40;99565.72;;;21.78;38.46
57114;BME280;42994;51.606;9.988;2023-06-04T10:21:08;99560.44;;;21.37;37.10
57114;BME280;42994;51.606;9.988;2023-06-04T10:23:35;99559.00;;;19.86;37.67
57114;BME280;42994;51.606;9.988;2023-06-04T10:26:02;99566.00;;;20.22;38.35
57114;BME280;42994;51.606;9.988;2023-06-04T10:28:32;99570.13;;;21.11;39.70
57114;BME280;42994;51.606;9.988;2023-06-04T10:31:00;99558.66;;;20.51;39.00
57114;BME280;42994;51.606;9.988;2023-06-04T10:33:26;99575.81;;;21.43;40.65
57114;BME280;42994;51.606;9.988;2023-06-04T10:35:54;99560.22;;;21.05;39.40
57114;BME280;42994;51.606;9.988;2023-06-04T10:38:21;99560.84;;;22.24;39.20
57114;BME280;42994;51.606;9.988;2023-06-04T10:40:48;99558.47;;;21.88;39.40
57114;BME280;42994;51.606;9.988;2023-06-04T10:43:15;99561.91;;;20.77;38.98
57114;BME280;42994;51.606;9.988;2023-06-04T10:45:44;99561.72;;;21.85;40.42
57114;BME280;42994;51.606;9.988;2023-06-04T10:48:12;99569.88;;;21.63;40.03
57114;BME280;42994;51.606;9.988;2023-06-04T10:50:48;99557.97;;;21.53;38.72
57114;BME280;42994;51.606;9.988;2023-06-04T10:53:16;99566.81;;;21.26;38.34
57114;BME280;42994;51.606;9.988;2023-06-04T10:55:44;99568.88;;;21.02;39.68
57114;BME280;42994;51.606;9.988;2023-06-04T10:58:11;99553.84;;;22.11;39.14
57114;BME280;42994;51.606;9.988;2023-06-04T11:00:38;99557.16;;;21.91;39.50
57114;BME280;42994;51.606;9.988;2023-06-04T11:03:08;99547.66;;;21.38;38.05
57114;BME280;42994;51.606;9.988;2023-06-04T11:05:36;99543.00;;;21.04;37.58
57114;BME280;42994;51.606;9.988;2023-06-04T11:08:03;99546.63;;;22.00;39.37
57114;BME280;42994;51.606;9.988;2023-06-04T11:10:32;99538.91;;;22.19;38.30
57114;BME280;42994;51.606;9.988;2023-06-04T11:12:59;99549.38;;;21.10;38.57
57114;BME280;42994;51.606;9.988;2023-06-04T11:15:26;99544.44;;;21.80;39.76
57114;BME280;42994;51.606;9.988;2023-06-04T11:17:53;99549.78;;;21.92;39.21
57114;BME280;42994;51.606;9.988;2023-06-04T11:20:22;99541.72;;;21.80;38.45
57114;BME280;42994;51.606;9.988;2023-06-04T11:22:51;99539.19;;;22.39;38.79
57114;BME280;42994;51.606;9.988;2023-06-04T11:25:18;99547.94;;;22.41;38.91
57114;BME280;42994;51.606;9.988;2023-06-04T11:27:45;99543.38;;;22.03;38.38
57114;BME280;42994;51.606;9.988;2023-06-04T11:30:12;99544.25;;;22.53;38.47
57114;BME280;42994;51.606;9.988;2023-06-04T11:32:39;99541.34;;;22.64;38.55
57114;BME280;42994;51.606;9.988;2023-06-04T11:35:06;99534.50;;;22.13;38.52
57114;BME280;42994;51.606;9.988;2023-06-04T11:37:34;99533.22;;;22.20;38.90
57114;BME280;42994;51.606;9.988;2023-06-04T11:40:01;99538.53;;;22.10;38.20
57114;BME280;42994;51.606;9.988;2023-06-04T11:42:30;99532.13;;;21.99;38.15
57114;BME280;42994;51.606;9.988;2023-06-04T11:44:57;99535.34;;;21.01;39.39
57114;BME280;42994;51.606;9.988;2023-06-04T11:47:24;99532.97;;;22.22;39.63
57114;BME280;42994;51.606;9.988;2023-06-04T11:49:54;99528.16;;;22.56;38.70
57114;BME280;42994;51.606;9.988;2023-06-04T11:52:21;99524.97;;;21.71;38.17
57114;BME280;42994;51.606;9.988;2023-06-04T11:54:49;99531.28;;;21.38;38.06
57114;BME280;42994;51.606;9.988;2023-06-04T11:57:17;99537.78;;;21.71;40.22
57114;BME280;42994;51.606;9.988;2023-06-04T11:59:44;99539.78;;;21.24;39.59
57114;BME280;42994;51.606;9.988;2023-06-04T12:02:11;99539.63;;;21.48;39.37
57114;BME280;42994;51.606;9.988;2023-06-04T12:04:37;99533.97;;;21.72;39.74
57114;BME280;42994;51.606;9.988;2023-06-04T12:07:04;99523.22;;;22.53;38.36
57114;BME280;42994;51.606;9.988;2023-06-04T12:09:32;99514.50;;;22.29;38.01
57114;BME280;42994;51.606;9.988;2023-06-04T12:12:02;99535.75;;;21.83;39.35
57114;BME280;42994;51.606;9.988;2023-06-04T12:14:30;99533.31;;;22.53;38.47
57114;BME280;42994;51.606;9.988;2023-06-04T12:16:58;99520.38;;;22.21;37.94
57114;BME280;42994;51.606;9.988;2023-06-04T12:19:25;99527.81;;;22.48;38.46
57114;BME280;42994;51.606;9.988;2023-06-04T12:22:02;99526.25;;;22.57;38.98
57114;BME280;42994;51.606;9.988;2023-06-04T12:24:29;99522.53;;;22.19;37.95
57114;BME280;42994;51.606;9.988;2023-06-04T12:27:05;99526.53;;;22.88;38.40
57114;BME280;42994;51.606;9.988;2023-06-04T12:29:33;99522.06;;;22.00;38.56
57114;BME280;42994;51.606;9.988;2023-06-04T12:32:05;99538.69;;;22.70;39.77
57114;BME280;42994;51.606;9.988;2023-06-04T12:34:33;99516.69;;;22.32;38.63
57114;BME280;42994;51.606;9.988;2023-06-04T12:37:00;99515.22;;;22.24;38.51
57114;BME280;42994;51.606;9.988;2023-06-04T12:39:28;99515.44;;;22.67;38.97
57114;BME280;42994;51.606;9.988;2023-06-04T12:41:55;99503.25;;;23.12;37.90
57114;BME280;42994;51.606;9.988;2023-06-04T12:44:23;99509.31;;;23.19;37.72
57114;BME280;42994;51.606;9.988;2023-06-04T12:46:50;99516.69;;;22.87;38.01
57114;BME280;42994;51.606;9.988;2023-06-04T12:49:16;99510.59;;;23.07;37.98
57114;BME280;42994;51.606;9.988;2023-06-04T12:51:43;99510.88;;;23.53;39.10
57114;BME280;42994;51.606;9.988;2023-06-04T12:54:10;99515.97;;;21.93;38.54
57114;BME280;42994;51.606;9.988;2023-06-04T12:56:37;99522.78;;;22.17;40.13
57114;BME280;42994;51.606;9.988;2023-06-04T12:59:03;99526.31;;;22.94;39.54
57114;BME280;42994;51.606;9.988;2023-06-04T13:01:31;99530.09;;;22.88;40.94
57114;BME280;42994;51.606;9.988;2023-06-04T13:03:58;99513.44;;;22.90;38.37